sensor_id;sensor_type;location;lat;lon;timestamp;temperature;humidity
55996;DHT22;75961;51.012;4.634;2024-01-25T00:02:03;9.90;90.30
55996;DHT22;75961;51.012;4.634;2024-01-25T00:04:28;9.80;90.60
55996;DHT22;75961;51.012;4.634;2024-01-25T00:06:54;9.90;90.30
55996;DHT22;75961;51.012;4.634;2024-01-25T00:09:20;9.80;90.50
55996;DHT22;75961;51.012;4.634;2024-01-25T00:11:46;10.00;90.10
55996;DHT22;75961;51.012;4.634;2024-01-25T00:14:11;9.70;90.60
55996;DHT22;75961;51.012;4.634;2024-01-25T00:16:41;9.40;91.30
55996;DHT22;75961;51.012;4.634;2024-01-25T00:19:07;9.40;91.50
55996;DHT22;75961;51.012;4.634;2024-01-25T00:21:33;9.50;91.10
55996;DHT22;75961;51.012;4.634;2024-01-25T00:23:58;9.50;91.00
55996;DHT22;75961;51.012;4.634;2024-01-25T00:26:24;9.30;91.50
55996;DHT22;75961;51.012;4.634;2024-01-25T00:28:50;9.10;92.00
55996;DHT22;75961;51.012;4.634;2024-01-25T00:31:15;9.00;91.80
55996;DHT22;75961;51.012;4.634;2024-01-25T00:33:41;8.90;92.40
55996;DHT22;75961;51.012;4.634;2024-01-25T00:36:07;8.90;92.20
55996;DHT22;75961;51.012;4.634;2024-01-25T00:38:33;9.00;92.10
55996;DHT22;75961;51.012;4.634;2024-01-25T00:41:00;8.90;92.20
55996;DHT22;75961;51.012;4.634;2024-01-25T00:43:26;8.70;93.10
55996;DHT22;75961;51.012;4.634;2024-01-25T00:45:52;8.60;93.40
55996;DHT22;75961;51.012;4.634;2024-01-25T00:48:18;8.70;92.90
55996;DHT22;75961;51.012;4.634;2024-01-25T00:50:44;8.90;92.30
55996;DHT22;75961;51.012;4.634;2024-01-25T00:53:10;8.80;92.70
55996;DHT22;75961;51.012;4.634;2024-01-25T00:55:36;8.50;93.00
55996;DHT22;75961;51.012;4.634;2024-01-25T00:58:02;8.60;92.90
55996;DHT22;75961;51.012;4.634;2024-01-25T01:00:28;8.60;92.80
55996;DHT22;75961;51.012;4.634;2024-01-25T01:02:54;8.60;92.50
55996;DHT22;75961;51.012;4.634;2024-01-25T01:05:22;8.60;92.30
55996;DHT22;75961;51.012;4.634;2024-01-25T01:07:48;8.60;92.20
55996;DHT22;75961;51.012;4.634;2024-01-25T01:10:14;8.50;92.20
55996;DHT22;75961;51.012;4.634;2024-01-25T01:12:40;8.50;92.10
55996;DHT22;75961;51.012;4.634;2024-01-25T01:15:05;8.40;92.10
55996;DHT22;75961;51.012;4.634;2024-01-25T01:17:31;8.30;92.20
55996;DHT22;75961;51.012;4.634;2024-01-25T01:19:57;8.40;92.50
55996;DHT22;75961;51.012;4.634;2024-01-25T01:22:23;8.40;92.40
55996;DHT22;75961;51.012;4.634;2024-01-25T01:24:48;8.30;92.30
55996;DHT22;75961;51.012;4.634;2024-01-25T01:27:14;8.30;92.40
55996;DHT22;75961;51.012;4.634;2024-01-25T01:29:40;8.20;92.40
55996;DHT22;75961;51.012;4.634;2024-01-25T01:32:06;8.10;92.30
55996;DHT22;75961;51.012;4.634;2024-01-25T01:34:32;8.10;92.40
55996;DHT22;75961;51.012;4.634;2024-01-25T01:36:58;8.20;92.20
55996;DHT22;75961;51.012;4.634;2024-01-25T01:39:23;8.20;92.00
55996;DHT22;75961;51.012;4.634;2024-01-25T01:41:50;8.20;92.00
55996;DHT22;75961;51.012;4.634;2024-01-25T01:44:16;8.00;92.00
55996;DHT22;75961;51.012;4.634;2024-01-25T01:46:42;7.80;92.30
55996;DHT22;75961;51.012;4.634;2024-01-25T01:49:11;7.70;92.80
55996;DHT22;75961;51.012;4.634;2024-01-25T01:51:37;7.70;92.60
55996;DHT22;75961;51.012;4.634;2024-01-25T01:54:07;7.70;92.70
55996;DHT22;75961;51.012;4.634;2024-01-25T01:56:33;7.70;92.70
55996;DHT22;75961;51.012;4.634;2024-01-25T01:59:04;7.70;93.10
55996;DHT22;75961;51.012;4.634;2024-01-25T02:01:31;7.60;92.60
55996;DHT22;75961;51.012;4.634;2024-01-25T02:03:57;7.50;92.50
55996;DHT22;75961;51.012;4.634;2024-01-25T02:06:26;7.40;92.60
55996;DHT22;75961;51.012;4.634;2024-01-25T02:08:52;7.60;92.70
55996;DHT22;75961;51.012;4.634;2024-01-25T02:11:24;7.60;92.50
55996;DHT22;75961;51.012;4.634;2024-01-25T02:13:50;7.40;92.70
55996;DHT22;75961;51.012;4.634;2024-01-25T02:16:16;7.30;93.20
55996;DHT22;75961;51.012;4.634;2024-01-25T02:18:43;7.30;93.00
55996;DHT22;75961;51.012;4.634;2024-01-25T02:21:08;7.20;92.90
55996;DHT22;75961;51.012;4.634;2024-01-25T02:23:34;7.20;93.20
55996;DHT22;75961;51.012;4.634;2024-01-25T02:26:00;7.50;92.90
55996;DHT22;75961;51.012;4.634;2024-01-25T02:28:26;7.20;92.80
55996;DHT22;75961;51.012;4.634;2024-01-25T02:30:51;7.20;92.90
55996;DHT22;75961;51.012;4.634;2024-01-25T02:33:17;7.20;92.90
55996;DHT22;75961;51.012;4.634;2024-01-25T02:35:43;7.20;93.20
55996;DHT22;75961;51.012;4.634;2024-01-25T02:38:09;7.30;92.90
55996;DHT22;75961;51.012;4.634;2024-01-25T02:40:35;7.20;93.20
55996;DHT22;75961;51.012;4.634;2024-01-25T02:43:00;7.10;93.70
55996;DHT22;75961;51.012;4.634;2024-01-25T02:45:26;7.00;93.80
55996;DHT22;75961;51.012;4.634;2024-01-25T02:47:51;7.00;93.70
55996;DHT22;75961;51.012;4.634;2024-01-25T02:50:17;7.10;93.40
55996;DHT22;75961;51.012;4.634;2024-01-25T02:52:43;7.10;93.40
55996;DHT22;75961;51.012;4.634;2024-01-25T02:55:09;7.10;93.20
55996;DHT22;75961;51.012;4.634;2024-01-25T02:57:34;7.00;92.90
55996;DHT22;75961;51.012;4.634;2024-01-25T03:00:00;7.00;93.00
55996;DHT22;75961;51.012;4.634;2024-01-25T03:02:26;6.90;92.80
55996;DHT22;75961;51.012;4.634;2024-01-25T03:04:52;6.80;92.80
55996;DHT22;75961;51.012;4.634;2024-01-25T03:07:17;6.90;92.70
55996;DHT22;75961;51.012;4.634;2024-01-25T03:09:43;6.70;92.90
55996;DHT22;75961;51.012;4.634;2024-01-25T03:12:09;6.80;92.90
55996;DHT22;75961;51.012;4.634;2024-01-25T03:14:35;6.60;93.20
55996;DHT22;75961;51.012;4.634;2024-01-25T03:17:01;6.60;93.20
55996;DHT22;75961;51.012;4.634;2024-01-25T03:19:27;6.60;93.50
55996;DHT22;75961;51.012;4.634;2024-01-25T03:21:53;6.60;93.10
55996;DHT22;75961;51.012;4.634;2024-01-25T03:24:23;6.60;93.30
55996;DHT22;75961;51.012;4.634;2024-01-25T03:26:49;6.70;93.40
55996;DHT22;75961;51.012;4.634;2024-01-25T03:29:15;6.60;93.20
55996;DHT22;75961;51.012;4.634;2024-01-25T03:31:41;6.60;93.30
55996;DHT22;75961;51.012;4.634;2024-01-25T03:34:07;6.60;93.00
55996;DHT22;75961;51.012;4.634;2024-01-25T03:36:32;6.50;92.90
55996;DHT22;75961;51.012;4.634;2024-01-25T03:38:58;6.60;93.20
55996;DHT22;75961;51.012;4.634;2024-01-25T03:41:24;6.90;92.80
55996;DHT22;75961;51.012;4.634;2024-01-25T03:43:50;6.70;92.60
55996;DHT22;75961;51.012;4.634;2024-01-25T03:46:16;6.40;92.80
55996;DHT22;75961;51.012;4.634;2024-01-25T03:48:41;6.30;93.50
55996;DHT22;75961;51.012;4.634;2024-01-25T03:51:08;6.20;93.60
55996;DHT22;75961;51.012;4.634;2024-01-25T03:53:33;6.10;93.80
55996;DHT22;75961;51.012;4.634;2024-01-25T03:55:59;6.10;93.80
55996;DHT22;75961;51.012;4.634;2024-01-25T03:58:25;6.30;93.70
55996;DHT22;75961;51.012;4.634;2024-01-25T04:00:51;6.30;93.20
55996;DHT22;75961;51.012;4.634;2024-01-25T04:03:16;6.20;93.20
55996;DHT22;75961;51.012;4.634;2024-01-25T04:05:42;6.20;93.00
55996;DHT22;75961;51.012;4.634;2024-01-25T04:08:08;6.10;93.00
55996;DHT22;75961;51.012;4.634;2024-01-25T04:10:34;6.20;93.50
55996;DHT22;75961;51.012;4.634;2024-01-25T04:13:00;6.10;92.80
55996;DHT22;75961;51.012;4.634;2024-01-25T04:15:26;6.10;92.50
55996;DHT22;75961;51.012;4.634;2024-01-25T04:17:52;5.90;92.50
55996;DHT22;75961;51.012;4.634;2024-01-25T04:20:21;5.70;92.90
55996;DHT22;75961;51.012;4.634;2024-01-25T04:22:47;5.60;93.40
55996;DHT22;75961;51.012;4.634;2024-01-25T04:25:13;5.60;93.60
55996;DHT22;75961;51.012;4.634;2024-01-25T04:27:39;5.50;94.00
55996;DHT22;75961;51.012;4.634;2024-01-25T04:30:06;5.70;94.00
55996;DHT22;75961;51.012;4.634;2024-01-25T04:32:32;5.70;94.00
55996;DHT22;75961;51.012;4.634;2024-01-25T04:34:57;5.80;93.70
55996;DHT22;75961;51.012;4.634;2024-01-25T04:37:23;5.80;93.30
55996;DHT22;75961;51.012;4.634;2024-01-25T04:39:49;5.70;93.30
55996;DHT22;75961;51.012;4.634;2024-01-25T04:42:14;5.70;93.20
55996;DHT22;75961;51.012;4.634;2024-01-25T04:44:40;5.60;93.30
55996;DHT22;75961;51.012;4.634;2024-01-25T04:47:06;5.60;93.50
55996;DHT22;75961;51.012;4.634;2024-01-25T04:49:32;5.50;93.60
55996;DHT22;75961;51.012;4.634;2024-01-25T04:51:57;5.60;93.40
55996;DHT22;75961;51.012;4.634;2024-01-25T04:54:23;5.60;93.00
55996;DHT22;75961;51.012;4.634;2024-01-25T04:56:49;5.70;92.60
55996;DHT22;75961;51.012;4.634;2024-01-25T04:59:15;5.70;92.60
55996;DHT22;75961;51.012;4.634;2024-01-25T05:01:40;5.50;92.60
55996;DHT22;75961;51.012;4.634;2024-01-25T05:04:06;5.50;92.80
55996;DHT22;75961;51.012;4.634;2024-01-25T05:06:32;5.70;92.70
55996;DHT22;75961;51.012;4.634;2024-01-25T05:08:58;5.70;92.40
55996;DHT22;75961;51.012;4.634;2024-01-25T05:11:24;5.60;92.70
55996;DHT22;75961;51.012;4.634;2024-01-25T05:13:49;5.60;92.80
55996;DHT22;75961;51.012;4.634;2024-01-25T05:16:15;5.40;93.00
55996;DHT22;75961;51.012;4.634;2024-01-25T05:18:41;5.40;93.30
55996;DHT22;75961;51.012;4.634;2024-01-25T05:21:06;5.30;93.10
55996;DHT22;75961;51.012;4.634;2024-01-25T05:23:32;5.30;92.70
55996;DHT22;75961;51.012;4.634;2024-01-25T05:25:58;5.40;92.60
55996;DHT22;75961;51.012;4.634;2024-01-25T05:28:24;5.20;92.70
55996;DHT22;75961;51.012;4.634;2024-01-25T05:30:50;5.10;92.80
55996;DHT22;75961;51.012;4.634;2024-01-25T05:33:16;5.10;92.70
55996;DHT22;75961;51.012;4.634;2024-01-25T05:35:42;5.30;92.50
55996;DHT22;75961;51.012;4.634;2024-01-25T05:38:07;5.20;92.70
55996;DHT22;75961;51.012;4.634;2024-01-25T05:40:33;5.10;92.70
55996;DHT22;75961;51.012;4.634;2024-01-25T05:42:59;4.90;93.30
55996;DHT22;75961;51.012;4.634;2024-01-25T05:45:25;4.80;93.50
55996;DHT22;75961;51.012;4.634;2024-01-25T05:47:51;4.90;93.60
55996;DHT22;75961;51.012;4.634;2024-01-25T05:50:17;4.80;93.30
55996;DHT22;75961;51.012;4.634;2024-01-25T05:52:43;4.90;93.60
55996;DHT22;75961;51.012;4.634;2024-01-25T05:55:09;4.90;93.30
55996;DHT22;75961;51.012;4.634;2024-01-25T05:57:36;4.90;93.60
55996;DHT22;75961;51.012;4.634;2024-01-25T06:00:02;4.90;93.40
55996;DHT22;75961;51.012;4.634;2024-01-25T06:02:28;5.00;93.50
55996;DHT22;75961;51.012;4.634;2024-01-25T06:04:54;4.90;93.40
55996;DHT22;75961;51.012;4.634;2024-01-25T06:07:20;5.10;93.20
55996;DHT22;75961;51.012;4.634;2024-01-25T06:09:46;4.90;93.30
55996;DHT22;75961;51.012;4.634;2024-01-25T06:12:11;4.90;94.40
55996;DHT22;75961;51.012;4.634;2024-01-25T06:14:37;5.00;94.00
55996;DHT22;75961;51.012;4.634;2024-01-25T06:17:03;5.20;93.80
55996;DHT22;75961;51.012;4.634;2024-01-25T06:19:29;5.20;93.50
55996;DHT22;75961;51.012;4.634;2024-01-25T06:21:55;5.20;93.60
55996;DHT22;75961;51.012;4.634;2024-01-25T06:24:20;5.20;93.50
55996;DHT22;75961;51.012;4.634;2024-01-25T06:26:46;5.20;93.70
55996;DHT22;75961;51.012;4.634;2024-01-25T06:29:12;5.20;94.30
55996;DHT22;75961;51.012;4.634;2024-01-25T06:31:43;5.20;94.20
55996;DHT22;75961;51.012;4.634;2024-01-25T06:34:10;5.40;94.20
55996;DHT22;75961;51.012;4.634;2024-01-25T06:36:35;5.40;94.50
55996;DHT22;75961;51.012;4.634;2024-01-25T06:39:02;5.50;95.00
55996;DHT22;75961;51.012;4.634;2024-01-25T06:41:29;5.50;94.60
55996;DHT22;75961;51.012;4.634;2024-01-25T06:43:55;5.70;94.00
55996;DHT22;75961;51.012;4.634;2024-01-25T06:46:21;5.70;93.80
55996;DHT22;75961;51.012;4.634;2024-01-25T06:48:46;5.80;93.50
55996;DHT22;75961;51.012;4.634;2024-01-25T06:51:12;5.80;93.60
55996;DHT22;75961;51.012;4.634;2024-01-25T06:53:39;5.70;93.40
55996;DHT22;75961;51.012;4.634;2024-01-25T06:56:05;5.70;93.60
55996;DHT22;75961;51.012;4.634;2024-01-25T06:58:32;5.70;93.80
55996;DHT22;75961;51.012;4.634;2024-01-25T07:00:57;5.80;93.80
55996;DHT22;75961;51.012;4.634;2024-01-25T07:03:23;5.80;93.70
55996;DHT22;75961;51.012;4.634;2024-01-25T07:05:49;5.90;93.60
55996;DHT22;75961;51.012;4.634;2024-01-25T07:08:15;5.90;93.70
55996;DHT22;75961;51.012;4.634;2024-01-25T07:10:42;5.90;93.70
55996;DHT22;75961;51.012;4.634;2024-01-25T07:13:08;5.90;93.40
55996;DHT22;75961;51.012;4.634;2024-01-25T07:15:33;5.80;93.80
55996;DHT22;75961;51.012;4.634;2024-01-25T07:17:59;5.70;94.10
55996;DHT22;75961;51.012;4.634;2024-01-25T07:20:25;5.60;94.90
55996;DHT22;75961;51.012;4.634;2024-01-25T07:22:51;5.70;95.20
55996;DHT22;75961;51.012;4.634;2024-01-25T07:25:16;5.90;94.80
55996;DHT22;75961;51.012;4.634;2024-01-25T07:27:45;5.80;94.60
55996;DHT22;75961;51.012;4.634;2024-01-25T07:30:12;5.90;94.70
55996;DHT22;75961;51.012;4.634;2024-01-25T07:32:39;5.90;94.80
55996;DHT22;75961;51.012;4.634;2024-01-25T07:35:07;5.90;94.90
55996;DHT22;75961;51.012;4.634;2024-01-25T07:37:33;5.90;94.80
55996;DHT22;75961;51.012;4.634;2024-01-25T07:39:59;6.00;94.90
55996;DHT22;75961;51.012;4.634;2024-01-25T07:42:24;6.10;94.50
55996;DHT22;75961;51.012;4.634;2024-01-25T07:44:50;6.10;94.40
55996;DHT22;75961;51.012;4.634;2024-01-25T07:47:16;6.10;94.10
55996;DHT22;75961;51.012;4.634;2024-01-25T07:49:41;6.10;94.40
55996;DHT22;75961;51.012;4.634;2024-01-25T07:52:07;6.10;94.50
55996;DHT22;75961;51.012;4.634;2024-01-25T07:54:33;6.10;94.60
55996;DHT22;75961;51.012;4.634;2024-01-25T07:56:59;6.10;94.80
55996;DHT22;75961;51.012;4.634;2024-01-25T07:59:24;6.20;94.90
55996;DHT22;75961;51.012;4.634;2024-01-25T08:01:50;6.30;94.30
55996;DHT22;75961;51.012;4.634;2024-01-25T08:04:16;6.30;94.40
55996;DHT22;75961;51.012;4.634;2024-01-25T08:06:41;6.30;94.50
55996;DHT22;75961;51.012;4.634;2024-01-25T08:09:07;6.30;94.30
55996;DHT22;75961;51.012;4.634;2024-01-25T08:11:34;6.30;94.30
55996;DHT22;75961;51.012;4.634;2024-01-25T08:14:00;6.30;94.30
55996;DHT22;75961;51.012;4.634;2024-01-25T08:16:26;6.50;94.40
55996;DHT22;75961;51.012;4.634;2024-01-25T08:18:51;6.60;94.40
55996;DHT22;75961;51.012;4.634;2024-01-25T08:21:17;6.70;94.30
55996;DHT22;75961;51.012;4.634;2024-01-25T08:23:43;6.70;94.30
55996;DHT22;75961;51.012;4.634;2024-01-25T08:26:08;6.60;94.60
55996;DHT22;75961;51.012;4.634;2024-01-25T08:28:42;6.50;95.20
55996;DHT22;75961;51.012;4.634;2024-01-25T08:31:11;6.40;95.40
55996;DHT22;75961;51.012;4.634;2024-01-25T08:33:38;6.50;95.40
55996;DHT22;75961;51.012;4.634;2024-01-25T08:36:07;6.70;94.90
55996;DHT22;75961;51.012;4.634;2024-01-25T08:38:33;6.80;95.10
55996;DHT22;75961;51.012;4.634;2024-01-25T08:40:58;6.80;94.70
55996;DHT22;75961;51.012;4.634;2024-01-25T08:43:24;7.10;93.90
55996;DHT22;75961;51.012;4.634;2024-01-25T08:45:50;7.10;94.00
55996;DHT22;75961;51.012;4.634;2024-01-25T08:48:15;7.10;94.50
55996;DHT22;75961;51.012;4.634;2024-01-25T08:50:41;7.10;94.40
55996;DHT22;75961;51.012;4.634;2024-01-25T08:53:07;7.20;94.30
55996;DHT22;75961;51.012;4.634;2024-01-25T08:55:33;7.40;93.60
55996;DHT22;75961;51.012;4.634;2024-01-25T08:57:59;7.30;93.70
55996;DHT22;75961;51.012;4.634;2024-01-25T09:00:24;7.20;93.60
55996;DHT22;75961;51.012;4.634;2024-01-25T09:02:50;7.10;94.10
55996;DHT22;75961;51.012;4.634;2024-01-25T09:05:16;7.00;94.10
55996;DHT22;75961;51.012;4.634;2024-01-25T09:07:42;7.20;94.10
55996;DHT22;75961;51.012;4.634;2024-01-25T09:10:08;7.30;93.70
55996;DHT22;75961;51.012;4.634;2024-01-25T09:12:35;7.40;94.10
55996;DHT22;75961;51.012;4.634;2024-01-25T09:15:01;7.40;94.00
55996;DHT22;75961;51.012;4.634;2024-01-25T09:17:27;7.30;94.20
55996;DHT22;75961;51.012;4.634;2024-01-25T09:19:53;7.30;94.30
55996;DHT22;75961;51.012;4.634;2024-01-25T09:22:19;7.50;93.90
55996;DHT22;75961;51.012;4.634;2024-01-25T09:24:48;7.60;93.40
55996;DHT22;75961;51.012;4.634;2024-01-25T09:27:14;7.70;94.10
55996;DHT22;75961;51.012;4.634;2024-01-25T09:29:40;7.70;93.20
55996;DHT22;75961;51.012;4.634;2024-01-25T09:32:07;7.50;93.50
55996;DHT22;75961;51.012;4.634;2024-01-25T09:34:38;7.60;93.20
55996;DHT22;75961;51.012;4.634;2024-01-25T09:37:05;7.60;93.80
55996;DHT22;75961;51.012;4.634;2024-01-25T09:39:31;7.60;93.80
55996;DHT22;75961;51.012;4.634;2024-01-25T09:41:57;7.80;93.10
55996;DHT22;75961;51.012;4.634;2024-01-25T09:44:23;7.60;93.80
55996;DHT22;75961;51.012;4.634;2024-01-25T09:46:50;7.70;93.90
55996;DHT22;75961;51.012;4.634;2024-01-25T09:49:16;7.90;93.50
55996;DHT22;75961;51.012;4.634;2024-01-25T09:51:43;8.00;92.90
55996;DHT22;75961;51.012;4.634;2024-01-25T09:54:09;7.80;93.40
55996;DHT22;75961;51.012;4.634;2024-01-25T09:56:35;7.80;94.00
55996;DHT22;75961;51.012;4.634;2024-01-25T09:59:01;8.10;93.20
55996;DHT22;75961;51.012;4.634;2024-01-25T10:01:28;8.10;93.00
55996;DHT22;75961;51.012;4.634;2024-01-25T10:03:54;8.00;93.20
55996;DHT22;75961;51.012;4.634;2024-01-25T10:06:23;8.10;93.30
55996;DHT22;75961;51.012;4.634;2024-01-25T10:08:49;8.20;93.60
55996;DHT22;75961;51.012;4.634;2024-01-25T10:11:16;8.20;93.90
55996;DHT22;75961;51.012;4.634;2024-01-25T10:13:45;8.40;93.50
55996;DHT22;75961;51.012;4.634;2024-01-25T10:16:15;8.30;93.50
55996;DHT22;75961;51.012;4.634;2024-01-25T10:18:42;8.30;93.90
55996;DHT22;75961;51.012;4.634;2024-01-25T10:21:12;8.60;93.10
55996;DHT22;75961;51.012;4.634;2024-01-25T10:23:38;8.70;92.40
55996;DHT22;75961;51.012;4.634;2024-01-25T10:26:04;8.90;92.00
55996;DHT22;75961;51.012;4.634;2024-01-25T10:28:30;8.80;92.60
55996;DHT22;75961;51.012;4.634;2024-01-25T10:31:01;8.90;92.00
55996;DHT22;75961;51.012;4.634;2024-01-25T10:33:27;8.80;92.30
55996;DHT22;75961;51.012;4.634;2024-01-25T10:35:57;8.90;92.40
55996;DHT22;75961;51.012;4.634;2024-01-25T10:38:31;8.90;92.60
55996;DHT22;75961;51.012;4.634;2024-01-25T10:41:00;8.80;92.50
55996;DHT22;75961;51.012;4.634;2024-01-25T10:43:27;8.60;92.60
55996;DHT22;75961;51.012;4.634;2024-01-25T10:45:53;8.60;93.20
55996;DHT22;75961;51.012;4.634;2024-01-25T10:48:21;8.70;92.90
55996;DHT22;75961;51.012;4.634;2024-01-25T10:50:48;8.70;93.10
55996;DHT22;75961;51.012;4.634;2024-01-25T10:53:16;8.90;92.30
55996;DHT22;75961;51.012;4.634;2024-01-25T10:55:42;8.80;93.00
55996;DHT22;75961;51.012;4.634;2024-01-25T10:58:08;9.00;92.60
55996;DHT22;75961;51.012;4.634;2024-01-25T11:00:35;9.00;92.30
55996;DHT22;75961;51.012;4.634;2024-01-25T11:03:01;9.10;92.20
55996;DHT22;75961;51.012;4.634;2024-01-25T11:05:27;9.00;92.50
55996;DHT22;75961;51.012;4.634;2024-01-25T11:07:53;9.10;92.30
55996;DHT22;75961;51.012;4.634;2024-01-25T11:10:22;9.20;92.20
55996;DHT22;75961;51.012;4.634;2024-01-25T11:12:55;9.50;91.50
55996;DHT22;75961;51.012;4.634;2024-01-25T11:15:39;9.60;91.30
55996;DHT22;75961;51.012;4.634;2024-01-25T11:18:07;9.40;91.80
55996;DHT22;75961;51.012;4.634;2024-01-25T11:20:34;9.50;91.60
55996;DHT22;75961;51.012;4.634;2024-01-25T11:23:05;9.80;91.00
55996;DHT22;75961;51.012;4.634;2024-01-25T11:25:33;9.80;90.90
55996;DHT22;75961;51.012;4.634;2024-01-25T11:28:01;9.80;90.70
55996;DHT22;75961;51.012;4.634;2024-01-25T11:30:29;9.70;91.10
55996;DHT22;75961;51.012;4.634;2024-01-25T11:32:55;9.50;91.80
55996;DHT22;75961;51.012;4.634;2024-01-25T11:35:21;9.60;91.80
55996;DHT22;75961;51.012;4.634;2024-01-25T11:37:48;9.60;91.90
55996;DHT22;75961;51.012;4.634;2024-01-25T11:40:15;10.00;90.90
55996;DHT22;75961;51.012;4.634;2024-01-25T11:42:48;10.10;90.70
55996;DHT22;75961;51.012;4.634;2024-01-25T11:45:14;10.10;90.80
55996;DHT22;75961;51.012;4.634;2024-01-25T11:47:41;10.30;90.50
55996;DHT22;75961;51.012;4.634;2024-01-25T11:50:10;10.50;89.90
55996;DHT22;75961;51.012;4.634;2024-01-25T11:52:36;10.40;90.10
55996;DHT22;75961;51.012;4.634;2024-01-25T11:55:03;10.50;89.90
55996;DHT22;75961;51.012;4.634;2024-01-25T11:57:38;10.50;90.20
55996;DHT22;75961;51.012;4.634;2024-01-25T12:00:09;10.60;90.10
55996;DHT22;75961;51.012;4.634;2024-01-25T12:02:36;10.60;90.30
55996;DHT22;75961;51.012;4.634;2024-01-25T12:05:03;10.60;90.00
55996;DHT22;75961;51.012;4.634;2024-01-25T12:07:32;10.80;89.90
55996;DHT22;75961;51.012;4.634;2024-01-25T12:10:08;10.60;90.30
55996;DHT22;75961;51.012;4.634;2024-01-25T12:12:37;10.80;90.00
55996;DHT22;75961;51.012;4.634;2024-01-25T12:15:06;10.80;90.00
55996;DHT22;75961;51.012;4.634;2024-01-25T12:17:33;11.10;88.60
55996;DHT22;75961;51.012;4.634;2024-01-25T12:20:02;11.00;88.90
55996;DHT22;75961;51.012;4.634;2024-01-25T12:22:29;11.10;88.50
55996;DHT22;75961;51.012;4.634;2024-01-25T12:24:58;10.80;89.30
55996;DHT22;75961;51.012;4.634;2024-01-25T12:27:25;10.70;90.00
55996;DHT22;75961;51.012;4.634;2024-01-25T12:29:52;10.80;89.90
55996;DHT22;75961;51.012;4.634;2024-01-25T12:32:22;10.90;89.60
55996;DHT22;75961;51.012;4.634;2024-01-25T12:34:54;10.90;89.40
55996;DHT22;75961;51.012;4.634;2024-01-25T12:37:20;11.00;89.20
55996;DHT22;75961;51.012;4.634;2024-01-25T12:39:46;10.80;90.10
55996;DHT22;75961;51.012;4.634;2024-01-25T12:42:12;10.90;90.10
55996;DHT22;75961;51.012;4.634;2024-01-25T12:44:39;10.90;90.10
55996;DHT22;75961;51.012;4.634;2024-01-25T12:47:05;10.90;90.50
55996;DHT22;75961;51.012;4.634;2024-01-25T12:49:33;10.90;90.50
55996;DHT22;75961;51.012;4.634;2024-01-25T12:51:59;11.00;90.20
55996;DHT22;75961;51.012;4.634;2024-01-25T12:54:26;11.10;90.20
55996;DHT22;75961;51.012;4.634;2024-01-25T12:56:51;11.00;90.50
55996;DHT22;75961;51.012;4.634;2024-01-25T12:59:17;11.00;91.00
55996;DHT22;75961;51.012;4.634;2024-01-25T13:01:43;10.70;91.90
55996;DHT22;75961;51.012;4.634;2024-01-25T13:04:09;10.80;91.70
55996;DHT22;75961;51.012;4.634;2024-01-25T13:06:34;10.80;92.00
55996;DHT22;75961;51.012;4.634;2024-01-25T13:09:00;10.70;92.30
55996;DHT22;75961;51.012;4.634;2024-01-25T13:11:26;10.90;91.90
55996;DHT22;75961;51.012;4.634;2024-01-25T13:13:51;11.10;91.40
55996;DHT22;75961;51.012;4.634;2024-01-25T13:16:17;10.80;92.10
55996;DHT22;75961;51.012;4.634;2024-01-25T13:18:43;10.80;92.00
55996;DHT22;75961;51.012;4.634;2024-01-25T13:21:09;10.80;92.00
55996;DHT22;75961;51.012;4.634;2024-01-25T13:23:35;10.70;92.50
55996;DHT22;75961;51.012;4.634;2024-01-25T13:26:01;10.60;92.90
55996;DHT22;75961;51.012;4.634;2024-01-25T13:28:27;10.60;92.80
55996;DHT22;75961;51.012;4.634;2024-01-25T13:30:52;10.60;93.10
55996;DHT22;75961;51.012;4.634;2024-01-25T13:33:19;10.60;93.10
55996;DHT22;75961;51.012;4.634;2024-01-25T13:35:45;10.90;92.60
55996;DHT22;75961;51.012;4.634;2024-01-25T13:38:11;11.10;91.90
55996;DHT22;75961;51.012;4.634;2024-01-25T13:40:40;10.90;92.20
55996;DHT22;75961;51.012;4.634;2024-01-25T13:43:06;11.10;92.00
55996;DHT22;75961;51.012;4.634;2024-01-25T13:45:32;11.10;91.90
55996;DHT22;75961;51.012;4.634;2024-01-25T13:47:57;10.80;92.40
55996;DHT22;75961;51.012;4.634;2024-01-25T13:50:23;10.80;92.70
55996;DHT22;75961;51.012;4.634;2024-01-25T13:52:49;10.90;92.60
55996;DHT22;75961;51.012;4.634;2024-01-25T13:55:14;10.90;92.40
55996;DHT22;75961;51.012;4.634;2024-01-25T13:57:40;11.10;92.30
55996;DHT22;75961;51.012;4.634;2024-01-25T14:00:06;11.10;92.40
55996;DHT22;75961;51.012;4.634;2024-01-25T14:02:33;11.10;92.20
55996;DHT22;75961;51.012;4.634;2024-01-25T14:04:59;11.00;92.80
55996;DHT22;75961;51.012;4.634;2024-01-25T14:07:25;10.90;93.00
55996;DHT22;75961;51.012;4.634;2024-01-25T14:09:51;11.00;93.00
55996;DHT22;75961;51.012;4.634;2024-01-25T14:12:17;11.10;92.70
55996;DHT22;75961;51.012;4.634;2024-01-25T14:14:43;11.20;92.50
55996;DHT22;75961;51.012;4.634;2024-01-25T14:17:09;11.30;92.40
55996;DHT22;75961;51.012;4.634;2024-01-25T14:19:34;11.40;92.30
55996;DHT22;75961;51.012;4.634;2024-01-25T14:22:00;11.40;92.30
55996;DHT22;75961;51.012;4.634;2024-01-25T14:24:26;11.40;92.50
55996;DHT22;75961;51.012;4.634;2024-01-25T14:26:52;11.30;93.00
55996;DHT22;75961;51.012;4.634;2024-01-25T14:29:18;11.60;92.00
55996;DHT22;75961;51.012;4.634;2024-01-25T14:31:44;11.40;92.20
55996;DHT22;75961;51.012;4.634;2024-01-25T14:34:10;11.20;92.90
55996;DHT22;75961;51.012;4.634;2024-01-25T14:36:35;11.30;92.90
55996;DHT22;75961;51.012;4.634;2024-01-25T14:39:01;11.30;92.50
55996;DHT22;75961;51.012;4.634;2024-01-25T14:41:31;11.20;92.80
55996;DHT22;75961;51.012;4.634;2024-01-25T14:43:59;11.30;92.80
55996;DHT22;75961;51.012;4.634;2024-01-25T14:46:25;11.50;92.50
55996;DHT22;75961;51.012;4.634;2024-01-25T14:48:50;11.40;92.50
55996;DHT22;75961;51.012;4.634;2024-01-25T14:51:16;11.30;93.00
55996;DHT22;75961;51.012;4.634;2024-01-25T14:53:42;11.50;92.40
55996;DHT22;75961;51.012;4.634;2024-01-25T14:56:08;11.50;92.40
55996;DHT22;75961;51.012;4.634;2024-01-25T14:58:34;11.50;92.50
55996;DHT22;75961;51.012;4.634;2024-01-25T15:01:00;11.30;92.90
55996;DHT22;75961;51.012;4.634;2024-01-25T15:03:26;11.20;93.30
55996;DHT22;75961;51.012;4.634;2024-01-25T15:05:51;11.30;93.30
55996;DHT22;75961;51.012;4.634;2024-01-25T15:08:17;11.20;93.40
55996;DHT22;75961;51.012;4.634;2024-01-25T15:10:43;11.30;93.40
55996;DHT22;75961;51.012;4.634;2024-01-25T15:13:08;11.20;93.50
55996;DHT22;75961;51.012;4.634;2024-01-25T15:15:34;11.30;93.50
55996;DHT22;75961;51.012;4.634;2024-01-25T15:18:00;11.20;93.60
55996;DHT22;75961;51.012;4.634;2024-01-25T15:20:26;11.30;93.50
55996;DHT22;75961;51.012;4.634;2024-01-25T15:22:52;11.20;93.80
55996;DHT22;75961;51.012;4.634;2024-01-25T15:25:18;11.50;93.20
55996;DHT22;75961;51.012;4.634;2024-01-25T15:27:44;11.30;93.40
55996;DHT22;75961;51.012;4.634;2024-01-25T15:30:10;11.40;93.20
55996;DHT22;75961;51.012;4.634;2024-01-25T15:32:39;11.30;93.50
55996;DHT22;75961;51.012;4.634;2024-01-25T15:35:05;11.10;94.20
55996;DHT22;75961;51.012;4.634;2024-01-25T15:37:31;11.10;94.10